sensor_id;sensor_type;location;lat;lon;timestamp;P1;durP1;ratioP1;P2;durP2;ratioP2
77076;SDS011;66003;52.286;104.306;2023-02-28T00:00:28;7.97;;;6.80;;
77076;SDS011;66003;52.286;104.306;2023-02-28T00:02:54;10.90;;;8.52;;
77076;SDS011;66003;52.286;104.306;2023-02-28T00:05:20;18.40;;;10.63;;
77076;SDS011;66003;52.286;104.306;2023-02-28T00:07:48;24.10;;;10.93;;
77076;SDS011;66003;52.286;104.306;2023-02-28T00:10:16;19.25;;;10.25;;
77076;SDS011;66003;52.286;104.306;2023-02-28T00:12:48;22.33;;;12.68;;
77076;SDS011;66003;52.286;104.306;2023-02-28T00:15:16;15.55;;;8.73;;
77076;SDS011;66003;52.286;104.306;2023-02-28T00:17:42;25.38;;;12.40;;
77076;SDS011;66003;52.286;104.306;2023-02-28T00:20:09;8.93;;;8.10;;
77076;SDS011;66003;52.286;104.306;2023-02-28T00:25:04;21.40;;;12.25;;
77076;SDS011;66003;52.286;104.306;2023-02-28T00:29:58;18.75;;;11.70;;
77076;SDS011;66003;52.286;104.306;2023-02-28T00:32:24;16.30;;;10.20;;
77076;SDS011;66003;52.286;104.306;2023-02-28T00:34:52;16.70;;;11.30;;
77076;SDS011;66003;52.286;104.306;2023-02-28T00:37:22;9.23;;;7.10;;
77076;SDS011;66003;52.286;104.306;2023-02-28T00:39:48;22.58;;;10.60;;
77076;SDS011;66003;52.286;104.306;2023-02-28T00:42:14;16.10;;;8.75;;
77076;SDS011;66003;52.286;104.306;2023-02-28T00:44:40;12.40;;;7.40;;
77076;SDS011;66003;52.286;104.306;2023-02-28T00:47:06;30.10;;;12.00;;
77076;SDS011;66003;52.286;104.306;2023-02-28T00:49:32;9.45;;;8.65;;
77076;SDS011;66003;52.286;104.306;2023-02-28T00:51:58;18.77;;;11.27;;
77076;SDS011;66003;52.286;104.306;2023-02-28T00:54:26;32.65;;;18.58;;
77076;SDS011;66003;52.286;104.306;2023-02-28T00:56:52;14.60;;;5.60;;
77076;SDS011;66003;52.286;104.306;2023-02-28T00:59:18;6.07;;;3.42;;
77076;SDS011;66003;52.286;104.306;2023-02-28T01:01:45;5.35;;;3.60;;
77076;SDS011;66003;52.286;104.306;2023-02-28T01:04:12;7.85;;;5.97;;
77076;SDS011;66003;52.286;104.306;2023-02-28T01:06:38;6.07;;;5.25;;
77076;SDS011;66003;52.286;104.306;2023-02-28T01:09:05;8.43;;;3.97;;
77076;SDS011;66003;52.286;104.306;2023-02-28T01:11:32;9.13;;;5.20;;
77076;SDS011;66003;52.286;104.306;2023-02-28T01:14:04;8.57;;;4.35;;
77076;SDS011;66003;52.286;104.306;2023-02-28T01:16:43;5.43;;;3.50;;
77076;SDS011;66003;52.286;104.306;2023-02-28T01:19:09;10.35;;;3.78;;
77076;SDS011;66003;52.286;104.306;2023-02-28T01:21:35;7.13;;;5.00;;
77076;SDS011;66003;52.286;104.306;2023-02-28T01:24:02;7.38;;;3.30;;
77076;SDS011;66003;52.286;104.306;2023-02-28T01:26:30;8.13;;;3.70;;
77076;SDS011;66003;52.286;104.306;2023-02-28T01:28:57;13.38;;;5.82;;
77076;SDS011;66003;52.286;104.306;2023-02-28T01:31:23;8.90;;;4.57;;
77076;SDS011;66003;52.286;104.306;2023-02-28T01:33:50;16.75;;;9.13;;
77076;SDS011;66003;52.286;104.306;2023-02-28T01:36:21;32.72;;;14.32;;
77076;SDS011;66003;52.286;104.306;2023-02-28T01:38:49;38.05;;;14.68;;
77076;SDS011;66003;52.286;104.306;2023-02-28T01:41:25;36.47;;;17.65;;
77076;SDS011;66003;52.286;104.306;2023-02-28T01:43:55;34.17;;;13.88;;
77076;SDS011;66003;52.286;104.306;2023-02-28T01:46:32;30.38;;;14.07;;
77076;SDS011;66003;52.286;104.306;2023-02-28T01:51:41;22.48;;;11.27;;
77076;SDS011;66003;52.286;104.306;2023-02-28T01:54:27;20.42;;;10.68;;
77076;SDS011;66003;52.286;104.306;2023-02-28T01:57:01;20.13;;;11.25;;
77076;SDS011;66003;52.286;104.306;2023-02-28T01:59:34;21.70;;;10.40;;
77076;SDS011;66003;52.286;104.306;2023-02-28T02:02:05;27.90;;;12.77;;
77076;SDS011;66003;52.286;104.306;2023-02-28T02:04:34;15.80;;;7.93;;
77076;SDS011;66003;52.286;104.306;2023-02-28T02:07:05;23.20;;;12.60;;
77076;SDS011;66003;52.286;104.306;2023-02-28T02:09:31;16.52;;;6.65;;
77076;SDS011;66003;52.286;104.306;2023-02-28T02:11:58;21.13;;;9.70;;
77076;SDS011;66003;52.286;104.306;2023-02-28T02:17:12;20.98;;;8.88;;
77076;SDS011;66003;52.286;104.306;2023-02-28T02:22:40;14.85;;;8.02;;
77076;SDS011;66003;52.286;104.306;2023-02-28T02:25:32;23.63;;;10.18;;
77076;SDS011;66003;52.286;104.306;2023-02-28T02:36:35;22.33;;;10.15;;
77076;SDS011;66003;52.286;104.306;2023-02-28T02:39:15;17.25;;;7.57;;
77076;SDS011;66003;52.286;104.306;2023-02-28T02:41:54;14.20;;;7.60;;
77076;SDS011;66003;52.286;104.306;2023-02-28T02:44:28;21.98;;;8.63;;
77076;SDS011;66003;52.286;104.306;2023-02-28T02:46:59;17.15;;;8.77;;
77076;SDS011;66003;52.286;104.306;2023-02-28T02:49:34;14.40;;;7.43;;
77076;SDS011;66003;52.286;104.306;2023-02-28T02:52:03;16.60;;;6.68;;
77076;SDS011;66003;52.286;104.306;2023-02-28T02:54:37;15.50;;;9.25;;
77076;SDS011;66003;52.286;104.306;2023-02-28T02:57:07;16.65;;;6.38;;
77076;SDS011;66003;52.286;104.306;2023-02-28T02:59:39;14.93;;;7.68;;
77076;SDS011;66003;52.286;104.306;2023-02-28T03:02:08;18.30;;;7.75;;
77076;SDS011;66003;52.286;104.306;2023-02-28T03:04:40;13.77;;;8.13;;
77076;SDS011;66003;52.286;104.306;2023-02-28T03:07:10;20.33;;;8.52;;
77076;SDS011;66003;52.286;104.306;2023-02-28T03:09:37;23.27;;;11.20;;
77076;SDS011;66003;52.286;104.306;2023-02-28T03:12:04;24.38;;;12.00;;
77076;SDS011;66003;52.286;104.306;2023-02-28T03:20:01;25.25;;;10.57;;
77076;SDS011;66003;52.286;104.306;2023-02-28T03:22:40;25.33;;;12.05;;
77076;SDS011;66003;52.286;104.306;2023-02-28T03:28:29;21.60;;;10.27;;
77076;SDS011;66003;52.286;104.306;2023-02-28T03:31:19;26.08;;;13.30;;
77076;SDS011;66003;52.286;104.306;2023-02-28T03:33:51;22.90;;;12.07;;
77076;SDS011;66003;52.286;104.306;2023-02-28T03:36:29;28.27;;;12.57;;
77076;SDS011;66003;52.286;104.306;2023-02-28T03:39:03;19.83;;;10.68;;
77076;SDS011;66003;52.286;104.306;2023-02-28T03:41:34;26.50;;;11.73;;
77076;SDS011;66003;52.286;104.306;2023-02-28T03:44:15;18.67;;;11.60;;
77076;SDS011;66003;52.286;104.306;2023-02-28T03:46:57;23.45;;;13.35;;
77076;SDS011;66003;52.286;104.306;2023-02-28T03:49:33;21.98;;;12.23;;
77076;SDS011;66003;52.286;104.306;2023-02-28T03:52:08;22.02;;;11.25;;
77076;SDS011;66003;52.286;104.306;2023-02-28T03:54:42;30.08;;;10.32;;
77076;SDS011;66003;52.286;104.306;2023-02-28T04:00:06;22.15;;;10.95;;
77076;SDS011;66003;52.286;104.306;2023-02-28T04:02:39;18.83;;;8.98;;
77076;SDS011;66003;52.286;104.306;2023-02-28T04:05:06;21.30;;;11.95;;
77076;SDS011;66003;52.286;104.306;2023-02-28T04:09:58;21.70;;;8.77;;
77076;SDS011;66003;52.286;104.306;2023-02-28T04:12:25;23.20;;;9.30;;
77076;SDS011;66003;52.286;104.306;2023-02-28T04:14:51;21.05;;;9.10;;
77076;SDS011;66003;52.286;104.306;2023-02-28T04:17:17;20.35;;;10.07;;
77076;SDS011;66003;52.286;104.306;2023-02-28T04:19:44;22.40;;;10.13;;
77076;SDS011;66003;52.286;104.306;2023-02-28T04:22:10;22.90;;;9.65;;
77076;SDS011;66003;52.286;104.306;2023-02-28T04:24:36;21.83;;;8.45;;
77076;SDS011;66003;52.286;104.306;2023-02-28T04:27:06;17.92;;;8.07;;
77076;SDS011;66003;52.286;104.306;2023-02-28T04:29:34;23.67;;;8.10;;
77076;SDS011;66003;52.286;104.306;2023-02-28T04:32:01;19.10;;;7.75;;
77076;SDS011;66003;52.286;104.306;2023-02-28T04:34:28;18.35;;;8.18;;
77076;SDS011;66003;52.286;104.306;2023-02-28T04:36:56;16.08;;;8.02;;
77076;SDS011;66003;52.286;104.306;2023-02-28T04:39:23;15.60;;;6.90;;
77076;SDS011;66003;52.286;104.306;2023-02-28T04:44:16;12.50;;;6.43;;
77076;SDS011;66003;52.286;104.306;2023-02-28T04:46:43;15.05;;;6.40;;
77076;SDS011;66003;52.286;104.306;2023-02-28T04:49:12;13.95;;;5.45;;
77076;SDS011;66003;52.286;104.306;2023-02-28T04:51:39;12.07;;;7.47;;
77076;SDS011;66003;52.286;104.306;2023-02-28T04:54:05;11.75;;;5.30;;
77076;SDS011;66003;52.286;104.306;2023-02-28T04:56:32;14.18;;;5.18;;
77076;SDS011;66003;52.286;104.306;2023-02-28T04:58:58;11.63;;;5.72;;
77076;SDS011;66003;52.286;104.306;2023-02-28T05:01:26;6.82;;;3.83;;
77076;SDS011;66003;52.286;104.306;2023-02-28T05:03:54;13.32;;;6.40;;
77076;SDS011;66003;52.286;104.306;2023-02-28T05:06:23;8.63;;;4.07;;
77076;SDS011;66003;52.286;104.306;2023-02-28T05:08:50;12.80;;;4.65;;
77076;SDS011;66003;52.286;104.306;2023-02-28T05:11:18;12.93;;;5.10;;
77076;SDS011;66003;52.286;104.306;2023-02-28T05:13:45;13.38;;;5.60;;
77076;SDS011;66003;52.286;104.306;2023-02-28T05:16:11;11.73;;;5.22;;
77076;SDS011;66003;52.286;104.306;2023-02-28T05:18:37;13.00;;;5.60;;
77076;SDS011;66003;52.286;104.306;2023-02-28T05:21:04;14.88;;;4.72;;
77076;SDS011;66003;52.286;104.306;2023-02-28T05:23:30;9.77;;;3.95;;
77076;SDS011;66003;52.286;104.306;2023-02-28T05:25:56;7.88;;;2.63;;
77076;SDS011;66003;52.286;104.306;2023-02-28T05:28:23;5.75;;;2.88;;
77076;SDS011;66003;52.286;104.306;2023-02-28T05:30:49;6.28;;;3.45;;
77076;SDS011;66003;52.286;104.306;2023-02-28T05:33:15;8.82;;;4.13;;
77076;SDS011;66003;52.286;104.306;2023-02-28T05:35:41;10.98;;;4.50;;
77076;SDS011;66003;52.286;104.306;2023-02-28T05:38:08;19.20;;;8.52;;
77076;SDS011;66003;52.286;104.306;2023-02-28T05:40:34;13.07;;;5.90;;
77076;SDS011;66003;52.286;104.306;2023-02-28T05:43:00;9.25;;;4.00;;
77076;SDS011;66003;52.286;104.306;2023-02-28T05:45:26;12.60;;;4.90;;
77076;SDS011;66003;52.286;104.306;2023-02-28T05:47:53;14.25;;;6.97;;
77076;SDS011;66003;52.286;104.306;2023-02-28T05:50:20;11.75;;;5.05;;
77076;SDS011;66003;52.286;104.306;2023-02-28T05:52:50;16.92;;;5.63;;
77076;SDS011;66003;52.286;104.306;2023-02-28T05:55:18;17.38;;;7.57;;
77076;SDS011;66003;52.286;104.306;2023-02-28T05:57:44;14.15;;;5.55;;
77076;SDS011;66003;52.286;104.306;2023-02-28T06:54:03;18.90;;;7.25;;
77076;SDS011;66003;52.286;104.306;2023-02-28T06:56:31;16.33;;;6.15;;
77076;SDS011;66003;52.286;104.306;2023-02-28T06:58:57;15.60;;;4.28;;
77076;SDS011;66003;52.286;104.306;2023-02-28T07:01:23;15.63;;;6.07;;
77076;SDS011;66003;52.286;104.306;2023-02-28T07:03:49;10.73;;;6.10;;
77076;SDS011;66003;52.286;104.306;2023-02-28T07:06:18;15.15;;;4.38;;
77076;SDS011;66003;52.286;104.306;2023-02-28T07:11:11;15.02;;;8.20;;
77076;SDS011;66003;52.286;104.306;2023-02-28T07:13:37;21.90;;;7.70;;
77076;SDS011;66003;52.286;104.306;2023-02-28T07:16:04;22.50;;;8.27;;
77076;SDS011;66003;52.286;104.306;2023-02-28T07:18:33;13.15;;;4.10;;
77076;SDS011;66003;52.286;104.306;2023-02-28T07:21:01;8.60;;;5.45;;
77076;SDS011;66003;52.286;104.306;2023-02-28T07:23:28;11.10;;;5.60;;
77076;SDS011;66003;52.286;104.306;2023-02-28T07:25:54;8.02;;;5.75;;
77076;SDS011;66003;52.286;104.306;2023-02-28T07:28:20;14.23;;;6.15;;
77076;SDS011;66003;52.286;104.306;2023-02-28T07:30:46;14.18;;;6.72;;
77076;SDS011;66003;52.286;104.306;2023-02-28T07:33:13;14.40;;;5.85;;
77076;SDS011;66003;52.286;104.306;2023-02-28T07:35:40;14.32;;;6.22;;
77076;SDS011;66003;52.286;104.306;2023-02-28T07:38:06;7.28;;;5.43;;
77076;SDS011;66003;52.286;104.306;2023-02-28T07:40:33;12.27;;;6.50;;
77076;SDS011;66003;52.286;104.306;2023-02-28T07:43:00;16.23;;;6.55;;
77076;SDS011;66003;52.286;104.306;2023-02-28T07:45:27;11.63;;;7.03;;
77076;SDS011;66003;52.286;104.306;2023-02-28T07:47:57;11.25;;;5.93;;
77076;SDS011;66003;52.286;104.306;2023-02-28T07:50:24;12.00;;;6.82;;
77076;SDS011;66003;52.286;104.306;2023-02-28T07:52:50;8.77;;;3.38;;
77076;SDS011;66003;52.286;104.306;2023-02-28T07:55:16;14.60;;;5.20;;
77076;SDS011;66003;52.286;104.306;2023-02-28T07:57:43;13.00;;;5.20;;
77076;SDS011;66003;52.286;104.306;2023-02-28T08:00:10;9.73;;;5.65;;
77076;SDS011;66003;52.286;104.306;2023-02-28T08:02:38;13.88;;;7.22;;
77076;SDS011;66003;52.286;104.306;2023-02-28T08:05:04;9.75;;;6.20;;
77076;SDS011;66003;52.286;104.306;2023-02-28T08:07:31;10.30;;;6.45;;
77076;SDS011;66003;52.286;104.306;2023-02-28T08:09:58;12.40;;;6.43;;
77076;SDS011;66003;52.286;104.306;2023-02-28T08:12:25;15.20;;;5.93;;
77076;SDS011;66003;52.286;104.306;2023-02-28T08:14:52;12.23;;;6.72;;
77076;SDS011;66003;52.286;104.306;2023-02-28T08:17:18;9.68;;;3.92;;
77076;SDS011;66003;52.286;104.306;2023-02-28T08:19:47;8.68;;;5.55;;
77076;SDS011;66003;52.286;104.306;2023-02-28T08:22:13;9.98;;;5.57;;
77076;SDS011;66003;52.286;104.306;2023-02-28T08:24:41;10.93;;;5.75;;
77076;SDS011;66003;52.286;104.306;2023-02-28T08:27:08;9.95;;;5.22;;
77076;SDS011;66003;52.286;104.306;2023-02-28T08:29:36;8.57;;;5.00;;
77076;SDS011;66003;52.286;104.306;2023-02-28T08:32:04;12.90;;;7.65;;
77076;SDS011;66003;52.286;104.306;2023-02-28T08:34:38;11.23;;;5.68;;
77076;SDS011;66003;52.286;104.306;2023-02-28T08:37:05;12.27;;;6.00;;
77076;SDS011;66003;52.286;104.306;2023-02-28T08:39:35;12.65;;;5.93;;
77076;SDS011;66003;52.286;104.306;2023-02-28T08:42:02;9.98;;;4.38;;
77076;SDS011;66003;52.286;104.306;2023-02-28T08:46:54;9.25;;;5.45;;
77076;SDS011;66003;52.286;104.306;2023-02-28T08:49:20;13.40;;;5.65;;
77076;SDS011;66003;52.286;104.306;2023-02-28T08:51:47;11.13;;;7.30;;
77076;SDS011;66003;52.286;104.306;2023-02-28T08:54:13;16.65;;;5.80;;
77076;SDS011;66003;52.286;104.306;2023-02-28T08:56:41;11.43;;;6.43;;
77076;SDS011;66003;52.286;104.306;2023-02-28T08:59:08;15.02;;;6.50;;
77076;SDS011;66003;52.286;104.306;2023-02-28T09:01:34;18.33;;;7.85;;
77076;SDS011;66003;52.286;104.306;2023-02-28T09:04:01;16.30;;;7.32;;
77076;SDS011;66003;52.286;104.306;2023-02-28T09:06:28;16.10;;;6.65;;
77076;SDS011;66003;52.286;104.306;2023-02-28T09:08:57;17.92;;;7.15;;
77076;SDS011;66003;52.286;104.306;2023-02-28T09:11:24;8.10;;;5.40;;
77076;SDS011;66003;52.286;104.306;2023-02-28T09:13:51;15.55;;;5.70;;
77076;SDS011;66003;52.286;104.306;2023-02-28T09:16:17;4.60;;;3.83;;
77076;SDS011;66003;52.286;104.306;2023-02-28T09:18:44;12.95;;;4.32;;
77076;SDS011;66003;52.286;104.306;2023-02-28T09:21:12;12.43;;;7.38;;
77076;SDS011;66003;52.286;104.306;2023-02-28T09:23:40;6.22;;;4.40;;
77076;SDS011;66003;52.286;104.306;2023-02-28T09:26:07;12.02;;;6.80;;
77076;SDS011;66003;52.286;104.306;2023-02-28T09:28:38;12.70;;;6.07;;
77076;SDS011;66003;52.286;104.306;2023-02-28T09:31:04;10.85;;;6.15;;
77076;SDS011;66003;52.286;104.306;2023-02-28T09:33:30;7.10;;;4.97;;
77076;SDS011;66003;52.286;104.306;2023-02-28T09:35:58;8.13;;;5.57;;
77076;SDS011;66003;52.286;104.306;2023-02-28T09:38:26;19.83;;;8.43;;
77076;SDS011;66003;52.286;104.306;2023-02-28T09:40:57;11.73;;;7.30;;
77076;SDS011;66003;52.286;104.306;2023-02-28T09:43:32;9.70;;;5.13;;
77076;SDS011;66003;52.286;104.306;2023-02-28T09:48:56;10.68;;;8.05;;
77076;SDS011;66003;52.286;104.306;2023-02-28T09:54:19;11.02;;;7.03;;
77076;SDS011;66003;52.286;104.306;2023-02-28T09:56:52;6.35;;;5.55;;
77076;SDS011;66003;52.286;104.306;2023-02-28T09:59:42;11.63;;;7.53;;
77076;SDS011;66003;52.286;104.306;2023-02-28T10:05:29;8.82;;;6.10;;
77076;SDS011;66003;52.286;104.306;2023-02-28T10:08:17;4.55;;;4.15;;
77076;SDS011;66003;52.286;104.306;2023-02-28T10:10:57;12.80;;;9.10;;
77076;SDS011;66003;52.286;104.306;2023-02-28T10:16:16;11.40;;;7.50;;
77076;SDS011;66003;52.286;104.306;2023-02-28T10:19:16;10.43;;;9.05;;
77076;SDS011;66003;52.286;104.306;2023-02-28T10:24:43;9.02;;;4.97;;
77076;SDS011;66003;52.286;104.306;2023-02-28T10:27:17;2.40;;;2.30;;
77076;SDS011;66003;52.286;104.306;2023-02-28T10:29:46;9.68;;;4.63;;
77076;SDS011;66003;52.286;104.306;2023-02-28T10:32:18;8.07;;;5.30;;
77076;SDS011;66003;52.286;104.306;2023-02-28T10:34:57;15.07;;;7.32;;
77076;SDS011;66003;52.286;104.306;2023-02-28T10:37:30;8.80;;;6.88;;
77076;SDS011;66003;52.286;104.306;2023-02-28T10:39:57;5.63;;;5.03;;
77076;SDS011;66003;52.286;104.306;2023-02-28T10:42:25;5.35;;;4.82;;
77076;SDS011;66003;52.286;104.306;2023-02-28T10:47:39;5.97;;;4.45;;
77076;SDS011;66003;52.286;104.306;2023-02-28T10:50:26;9.80;;;6.78;;
77076;SDS011;66003;52.286;104.306;2023-02-28T10:56:16;12.27;;;6.20;;
77076;SDS011;66003;52.286;104.306;2023-02-28T10:58:55;9.25;;;4.32;;
77076;SDS011;66003;52.286;104.306;2023-02-28T11:04:03;12.02;;;6.43;;
77076;SDS011;66003;52.286;104.306;2023-02-28T11:09:45;9.38;;;5.80;;
77076;SDS011;66003;52.286;104.306;2023-02-28T11:15:03;7.68;;;5.88;;
77076;SDS011;66003;52.286;104.306;2023-02-28T11:17:44;8.65;;;5.40;;
77076;SDS011;66003;52.286;104.306;2023-02-28T11:20:22;14.38;;;8.05;;
77076;SDS011;66003;52.286;104.306;2023-02-28T11:22:50;30.15;;;15.90;;
77076;SDS011;66003;52.286;104.306;2023-02-28T11:25:54;21.25;;;10.05;;
77076;SDS011;66003;52.286;104.306;2023-02-28T11:28:50;25.58;;;14.07;;
77076;SDS011;66003;52.286;104.306;2023-02-28T11:36:25;11.18;;;7.70;;
77076;SDS011;66003;52.286;104.306;2023-02-28T11:38:58;16.88;;;8.40;;
77076;SDS011;66003;52.286;104.306;2023-02-28T11:52:21;15.60;;;10.10;;
77076;SDS011;66003;52.286;104.306;2023-02-28T12:12:16;5.05;;;4.68;;
77076;SDS011;66003;52.286;104.306;2023-02-28T12:28:59;28.48;;;16.85;;
77076;SDS011;66003;52.286;104.306;2023-02-28T12:31:38;8.65;;;6.70;;
77076;SDS011;66003;52.286;104.306;2023-02-28T12:34:24;13.73;;;9.25;;
77076;SDS011;66003;52.286;104.306;2023-02-28T12:36:55;10.13;;;9.18;;
77076;SDS011;66003;52.286;104.306;2023-02-28T12:39:38;6.85;;;5.82;;
77076;SDS011;66003;52.286;104.306;2023-02-28T12:42:11;9.55;;;4.63;;
77076;SDS011;66003;52.286;104.306;2023-02-28T12:44:53;29.13;;;16.83;;
77076;SDS011;66003;52.286;104.306;2023-02-28T12:47:24;24.95;;;12.15;;
77076;SDS011;66003;52.286;104.306;2023-02-28T12:49:58;21.17;;;13.05;;
77076;SDS011;66003;52.286;104.306;2023-02-28T13:00:46;31.02;;;14.02;;
77076;SDS011;66003;52.286;104.306;2023-02-28T13:03:41;13.73;;;7.22;;
77076;SDS011;66003;52.286;104.306;2023-02-28T13:06:33;14.73;;;8.07;;
77076;SDS011;66003;52.286;104.306;2023-02-28T13:09:25;37.90;;;16.75;;
77076;SDS011;66003;52.286;104.306;2023-02-28T13:11:52;22.77;;;12.80;;
77076;SDS011;66003;52.286;104.306;2023-02-28T13:17:00;12.27;;;7.63;;
77076;SDS011;66003;52.286;104.306;2023-02-28T13:20:00;13.85;;;7.93;;
77076;SDS011;66003;52.286;104.306;2023-02-28T13:24:52;24.27;;;12.70;;
77076;SDS011;66003;52.286;104.306;2023-02-28T13:29:50;13.77;;;10.38;;
77076;SDS011;66003;52.286;104.306;2023-02-28T13:47:41;6.00;;;5.00;;
77076;SDS011;66003;52.286;104.306;2023-02-28T13:53:13;5.10;;;4.80;;
77076;SDS011;66003;52.286;104.306;2023-02-28T13:55:57;14.55;;;9.35;;
77076;SDS011;66003;52.286;104.306;2023-02-28T14:01:16;19.92;;;9.38;;
77076;SDS011;66003;52.286;104.306;2023-02-28T14:06:46;11.98;;;6.55;;
77076;SDS011;66003;52.286;104.306;2023-02-28T14:09:37;5.22;;;4.82;;
77076;SDS011;66003;52.286;104.306;2023-02-28T14:16:11;5.95;;;4.32;;
77076;SDS011;66003;52.286;104.306;2023-02-28T14:20:57;6.75;;;4.80;;
77076;SDS011;66003;52.286;104.306;2023-02-28T14:23:36;9.50;;;7.97;;
77076;SDS011;66003;52.286;104.306;2023-02-28T14:27:03;22.92;;;12.57;;
77076;SDS011;66003;52.286;104.306;2023-02-28T14:31:58;15.10;;;7.15;;
77076;SDS011;66003;52.286;104.306;2023-02-28T14:34:57;10.82;;;5.32;;
77076;SDS011;66003;52.286;104.306;2023-02-28T14:37:50;7.60;;;4.22;;
77076;SDS011;66003;52.286;104.306;2023-02-28T14:40:25;15.07;;;8.85;;
77076;SDS011;66003;52.286;104.306;2023-02-28T14:42:56;15.30;;;8.10;;
77076;SDS011;66003;52.286;104.306;2023-02-28T14:45:25;5.65;;;4.70;;
77076;SDS011;66003;52.286;104.306;2023-02-28T14:47:55;0.88;;;0.82;;
77076;SDS011;66003;52.286;104.306;2023-02-28T14:50:26;4.65;;;4.25;;
77076;SDS011;66003;52.286;104.306;2023-02-28T14:52:56;5.68;;;4.88;;
77076;SDS011;66003;52.286;104.306;2023-02-28T14:55:31;6.38;;;2.85;;
77076;SDS011;66003;52.286;104.306;2023-02-28T14:58:00;9.45;;;5.07;;
77076;SDS011;66003;52.286;104.306;2023-02-28T15:00:33;2.55;;;1.85;;
77076;SDS011;66003;52.286;104.306;2023-02-28T15:06:14;11.60;;;5.07;;
77076;SDS011;66003;52.286;104.306;2023-02-28T15:08:43;4.90;;;4.47;;
77076;SDS011;66003;52.286;104.306;2023-02-28T15:13:43;9.07;;;6.82;;
77076;SDS011;66003;52.286;104.306;2023-02-28T15:16:19;7.93;;;6.13;;
77076;SDS011;66003;52.286;104.306;2023-02-28T15:18:49;13.75;;;8.00;;
77076;SDS011;66003;52.286;104.306;2023-02-28T15:21:19;9.88;;;7.72;;
77076;SDS011;66003;52.286;104.306;2023-02-28T15:24:10;3.92;;;3.70;;
77076;SDS011;66003;52.286;104.306;2023-02-28T15:26:42;7.22;;;5.20;;
77076;SDS011;66003;52.286;104.306;2023-02-28T15:29:19;6.28;;;3.03;;
77076;SDS011;66003;52.286;104.306;2023-02-28T15:31:55;12.70;;;6.00;;
77076;SDS011;66003;52.286;104.306;2023-02-28T15:34:26;4.38;;;3.97;;
77076;SDS011;66003;52.286;104.306;2023-02-28T15:39:55;6.20;;;5.68;;
77076;SDS011;66003;52.286;104.306;2023-02-28T15:42:27;7.72;;;5.68;;
77076;SDS011;66003;52.286;104.306;2023-02-28T15:44:55;8.25;;;5.82;;
77076;SDS011;66003;52.286;104.306;2023-02-28T15:47:23;2.95;;;2.15;;
77076;SDS011;66003;52.286;104.306;2023-02-28T15:55:09;10.20;;;5.68;;
77076;SDS011;66003;52.286;104.306;2023-02-28T15:57:41;12.38;;;8.43;;
77076;SDS011;66003;52.286;104.306;2023-02-28T16:00:12;18.63;;;11.48;;
77076;SDS011;66003;52.286;104.306;2023-02-28T16:02:40;11.45;;;6.57;;
77076;SDS011;66003;52.286;104.306;2023-02-28T16:07:37;9.40;;;6.40;;
77076;SDS011;66003;52.286;104.306;2023-02-28T16:10:06;12.35;;;5.00;;
77076;SDS011;66003;52.286;104.306;2023-02-28T16:12:35;4.00;;;3.80;;
77076;SDS011;66003;52.286;104.306;2023-02-28T16:15:06;13.98;;;3.90;;
77076;SDS011;66003;52.286;104.306;2023-02-28T16:17:54;5.18;;;4.85;;
77076;SDS011;66003;52.286;104.306;2023-02-28T16:20:23;3.13;;;3.03;;
77076;SDS011;66003;52.286;104.306;2023-02-28T16:22:54;7.22;;;3.67;;
77076;SDS011;66003;52.286;104.306;2023-02-28T16:25:29;3.50;;;2.42;;
77076;SDS011;66003;52.286;104.306;2023-02-28T16:28:08;5.93;;;4.60;;
77076;SDS011;66003;52.286;104.306;2023-02-28T16:30:43;4.15;;;4.05;;
77076;SDS011;66003;52.286;104.306;2023-02-28T16:33:10;6.70;;;4.75;;
77076;SDS011;66003;52.286;104.306;2023-02-28T16:35:36;7.38;;;5.95;;
77076;SDS011;66003;52.286;104.306;2023-02-28T16:38:03;4.82;;;4.43;;
77076;SDS011;66003;52.286;104.306;2023-02-28T16:40:29;11.52;;;4.78;;
77076;SDS011;66003;52.286;104.306;2023-02-28T16:43:01;14.68;;;6.40;;
77076;SDS011;66003;52.286;104.306;2023-02-28T16:45:32;3.03;;;1.80;;
77076;SDS011;66003;52.286;104.306;2023-02-28T16:47:59;4.53;;;2.90;;
77076;SDS011;66003;52.286;104.306;2023-02-28T16:50:28;6.38;;;3.20;;
77076;SDS011;66003;52.286;104.306;2023-02-28T16:53:00;7.68;;;5.38;;
77076;SDS011;66003;52.286;104.306;2023-02-28T16:55:26;3.72;;;1.83;;
77076;SDS011;66003;52.286;104.306;2023-02-28T16:57:55;3.65;;;3.45;;
77076;SDS011;66003;52.286;104.306;2023-02-28T17:00:23;11.05;;;5.88;;
77076;SDS011;66003;52.286;104.306;2023-02-28T17:02:51;4.80;;;4.32;;
77076;SDS011;66003;52.286;104.306;2023-02-28T17:05:18;9.82;;;6.13;;
77076;SDS011;66003;52.286;104.306;2023-02-28T17:07:45;4.95;;;4.20;;
77076;SDS011;66003;52.286;104.306;2023-02-28T17:10:16;7.05;;;5.53;;
77076;SDS011;66003;52.286;104.306;2023-02-28T17:12:43;5.55;;;5.15;;
77076;SDS011;66003;52.286;104.306;2023-02-28T17:15:10;2.58;;;2.38;;
77076;SDS011;66003;52.286;104.306;2023-02-28T17:17:39;4.53;;;3.63;;
77076;SDS011;66003;52.286;104.306;2023-02-28T17:22:37;4.25;;;2.97;;
77076;SDS011;66003;52.286;104.306;2023-02-28T17:25:04;9.73;;;4.68;;
77076;SDS011;66003;52.286;104.306;2023-02-28T17:27:32;13.27;;;5.40;;
77076;SDS011;66003;52.286;104.306;2023-02-28T17:30:00;14.38;;;5.05;;
77076;SDS011;66003;52.286;104.306;2023-02-28T17:32:28;7.15;;;5.85;;
77076;SDS011;66003;52.286;104.306;2023-02-28T17:34:56;7.40;;;4.97;;
77076;SDS011;66003;52.286;104.306;2023-02-28T17:37:24;6.82;;;5.93;;
77076;SDS011;66003;52.286;104.306;2023-02-28T17:39:50;9.73;;;8.77;;
77076;SDS011;66003;52.286;104.306;2023-02-28T17:42:17;7.03;;;5.13;;
77076;SDS011;66003;52.286;104.306;2023-02-28T17:44:43;5.35;;;4.85;;
77076;SDS011;66003;52.286;104.306;2023-02-28T17:47:09;4.47;;;4.03;;
77076;SDS011;66003;52.286;104.306;2023-02-28T17:49:38;2.92;;;2.65;;
77076;SDS011;66003;52.286;104.306;2023-02-28T17:52:06;6.07;;;3.47;;
77076;SDS011;66003;52.286;104.306;2023-02-28T17:54:32;3.17;;;3.05;;
77076;SDS011;66003;52.286;104.306;2023-02-28T17:56:59;11.90;;;7.45;;
77076;SDS011;66003;52.286;104.306;2023-02-28T17:59:25;5.45;;;3.03;;
77076;SDS011;66003;52.286;104.306;2023-02-28T18:02:02;2.22;;;2.00;;
77076;SDS011;66003;52.286;104.306;2023-02-28T18:04:29;6.47;;;3.55;;
77076;SDS011;66003;52.286;104.306;2023-02-28T18:06:55;4.22;;;2.95;;
77076;SDS011;66003;52.286;104.306;2023-02-28T18:09:25;8.75;;;3.60;;
77076;SDS011;66003;52.286;104.306;2023-02-28T18:11:53;5.20;;;4.00;;
77076;SDS011;66003;52.286;104.306;2023-02-28T18:14:21;3.30;;;3.10;;
77076;SDS011;66003;52.286;104.306;2023-02-28T18:16:51;6.18;;;2.70;;
77076;SDS011;66003;52.286;104.306;2023-02-28T18:19:19;7.72;;;4.88;;
77076;SDS011;66003;52.286;104.306;2023-02-28T18:21:46;9.55;;;6.68;;
77076;SDS011;66003;52.286;104.306;2023-02-28T18:24:14;8.57;;;5.35;;
77076;SDS011;66003;52.286;104.306;2023-02-28T18:26:42;4.28;;;1.98;;
77076;SDS011;66003;52.286;104.306;2023-02-28T18:29:08;3.72;;;3.40;;
77076;SDS011;66003;52.286;104.306;2023-02-28T18:31:42;5.88;;;5.30;;